Time;durP1;ratioP1;P1;durP2;ratioP2;P2;SDS_P1;SDS_P2;PMS_P1;PMS_P2;Temp;Humidity;BMP_temperature;BMP_pressure;BME280_temperature;BME280_humidity;BME280_pressure;Samples;Min_cycle;Max_cycle;Signal;HPM_P1;HPM_P2
2022/07/11 05:29:30;;;;;;;4.60;3.52;;;;;;;12.74;100.00;97804.52;1889608;76;23310;-59
2022/07/11 05:31:57;;;;;;;5.45;2.25;;;;;;;12.79;100.00;97809.73;1831386;77;21446;-55
2022/07/11 05:34:25;;;;;;;2.98;2.00;;;;;;;12.89;99.16;97803.56;1846523;77;21788;-64
2022/07/11 05:36:54;;;;;;;2.92;1.65;;;;;;;12.98;98.61;97803.59;1837715;77;20939;-58
2022/07/11 05:39:21;;;;;;;3.52;1.92;;;;;;;13.10;98.17;97806.52;1826310;78;20967;-56
2022/07/11 05:41:51;;;;;;;3.27;1.72;;;;;;;13.23;97.29;97809.67;1831211;77;21010;-59
2022/07/11 05:44:17;;;;;;;2.47;1.82;;;;;;;13.34;96.09;97808.28;1839102;77;21303;-65
2022/07/11 05:46:45;;;;;;;3.75;1.42;;;;;;;13.43;95.72;97813.13;1839556;77;22432;-57
2022/07/11 05:49:12;;;;;;;2.65;1.65;;;;;;;13.52;95.50;97811.25;1836904;77;20908;-60
2022/07/11 05:51:39;;;;;;;2.67;1.85;;;;;;;13.65;94.84;97813.03;1826666;78;20927;-62
2022/07/11 05:54:06;;;;;;;3.30;1.80;;;;;;;13.76;93.54;97812.71;1829593;77;21486;-62
2022/07/11 05:56:34;;;;;;;3.98;1.70;;;;;;;13.82;93.04;97814.96;1781752;80;20889;-62
2022/07/11 05:59:00;;;;;;;2.37;1.50;;;;;;;13.87;92.39;97812.12;1793997;80;21228;-59
2022/07/11 06:01:27;;;;;;;6.08;1.70;;;;;;;13.88;91.44;97815.03;1791574;80;20888;-63
2022/07/11 06:03:53;;;;;;;3.45;1.80;;;;;;;13.90;90.62;97820.89;1799936;79;21419;-63
2022/07/11 06:06:21;;;;;;;4.10;1.82;;;;;;;13.89;90.87;97809.10;1790821;80;20967;-59
2022/07/11 06:08:47;;;;;;;2.50;1.77;;;;;;;13.95;91.03;97815.91;1778779;79;20977;-61
2022/07/11 06:11:15;;;;;;;4.22;1.92;;;;;;;14.02;91.09;97810.29;1772382;81;20881;-63
2022/07/11 06:13:47;;;;;;;5.53;1.50;;;;;;;14.08;90.19;97819.02;1776504;79;20940;-61
2022/07/11 06:16:14;;;;;;;2.75;1.47;;;;;;;14.09;89.01;97815.20;1771256;80;21510;-62
2022/07/11 06:18:41;;;;;;;3.40;1.50;;;;;;;14.12;88.87;97818.61;1777511;79;21007;-61
2022/07/11 06:21:07;;;;;;;3.02;1.55;;;;;;;14.18;88.45;97818.67;1781666;79;20876;-59
2022/07/11 06:23:36;;;;;;;2.52;1.27;;;;;;;14.26;88.18;97816.55;1778880;79;21231;-64
2022/07/11 06:26:05;;;;;;;1.62;1.32;;;;;;;14.35;87.93;97818.70;1774969;79;20904;-63
2022/07/11 06:28:33;;;;;;;6.42;1.82;;;;;;;14.47;88.08;97814.81;1770854;79;21119;-65
2022/07/11 06:31:00;;;;;;;1.60;1.20;;;;;;;14.58;87.10;97815.30;1822344;77;20921;-60
2022/07/11 06:33:26;;;;;;;2.62;1.35;;;;;;;14.66;86.69;97819.31;1820808;77;21048;-59
2022/07/11 06:35:53;;;;;;;8.65;1.70;;;;;;;14.76;85.74;97820.33;1816027;78;21125;-64
2022/07/11 06:38:20;;;;;;;2.42;1.40;;;;;;;14.78;85.18;97820.80;1816904;77;20954;-63
2022/07/11 06:40:47;;;;;;;2.42;1.30;;;;;;;14.87;85.29;97824.25;1820408;77;21062;-60
2022/07/11 06:43:15;;;;;;;3.62;1.40;;;;;;;14.99;84.63;97821.68;1771073;80;21033;-67
2022/07/11 06:45:42;;;;;;;1.82;1.20;;;;;;;15.08;84.09;97821.64;1761479;79;21121;-63
2022/07/11 06:48:08;;;;;;;5.12;1.40;;;;;;;15.13;83.27;97823.37;1762847;80;21233;-64
2022/07/11 06:50:36;;;;;;;2.37;1.42;;;;;;;15.11;83.17;97825.60;1821555;77;20986;-64
2022/07/11 06:53:03;;;;;;;9.48;1.70;;;;;;;15.11;82.80;97820.20;1813745;77;21056;-60
2022/07/11 06:55:31;;;;;;;3.40;1.50;;;;;;;14.99;82.32;97823.58;1807675;77;21057;-62
2022/07/11 06:58:01;;;;;;;2.87;1.75;;;;;;;14.91;82.07;97825.19;1813330;77;21117;-60
2022/07/11 07:00:28;;;;;;;1.90;1.57;;;;;;;14.78;81.29;97827.53;1761840;80;21109;-62
2022/07/11 07:03:01;;;;;;;2.90;1.50;;;;;;;14.61;81.81;97822.17;1749945;80;21063;-62
2022/07/11 07:05:25;;;;;;;4.17;1.80;;;;;;;14.56;82.29;97823.67;1762948;80;21129;-63
2022/07/11 07:07:53;;;;;;;3.47;1.70;;;;;;;14.57;82.77;97825.83;1753507;80;21027;-63
2022/07/11 07:10:28;;;;;;;3.83;1.60;;;;;;;14.55;82.45;97827.50;1741686;80;20941;-61
2022/07/11 07:12:54;;;;;;;5.37;1.70;;;;;;;14.52;82.56;97822.73;1751215;80;21284;-63
2022/07/11 07:15:22;;;;;;;4.00;1.65;;;;;;;14.51;82.88;97819.80;1747682;80;21460;-60
2022/07/11 07:17:49;;;;;;;6.28;2.02;;;;;;;14.45;82.79;97825.12;1748111;80;21095;-64
2022/07/11 07:20:16;;;;;;;5.03;2.10;;;;;;;14.36;83.16;97829.19;1747276;80;21099;-63
2022/07/11 07:22:43;;;;;;;4.30;2.17;;;;;;;14.29;83.94;97832.09;1746310;80;21052;-59
2022/07/11 07:25:10;;;;;;;7.95;2.55;;;;;;;14.26;83.95;97832.71;1780799;79;21219;-61
2022/07/11 07:27:36;;;;;;;3.37;2.30;;;;;;;14.21;83.91;97833.66;1782861;79;21131;-61
2022/07/11 07:30:04;;;;;;;4.80;2.20;;;;;;;14.14;84.28;97827.16;1818306;77;21547;-67
2022/07/11 07:32:31;;;;;;;4.03;2.42;;;;;;;14.10;84.53;97828.36;1811943;77;21475;-60
2022/07/11 07:35:00;;;;;;;3.10;2.25;;;;;;;14.09;84.69;97836.20;1812985;77;21080;-64
2022/07/11 07:37:28;;;;;;;5.90;2.45;;;;;;;14.08;85.10;97834.63;1811775;77;21091;-65
2022/07/11 07:39:55;;;;;;;4.83;2.35;;;;;;;14.08;85.28;97845.40;1823589;77;21612;-61
2022/07/11 07:42:21;;;;;;;7.70;3.20;;;;;;;14.01;85.42;97842.93;1774835;79;21061;-62
2022/07/11 07:44:49;;;;;;;5.90;2.80;;;;;;;13.94;85.93;97844.75;1760667;79;21026;-67
2022/07/11 07:47:16;;;;;;;4.60;2.52;;;;;;;13.96;86.35;97835.00;1751438;80;20932;-60
2022/07/11 07:49:42;;;;;;;5.03;3.45;;;;;;;13.97;86.31;97845.45;1787935;79;21125;-62
2022/07/11 07:52:16;;;;;;;3.92;2.85;;;;;;;13.97;85.87;97852.72;1779468;79;21488;-67
2022/07/11 07:54:44;;;;;;;4.60;3.12;;;;;;;13.87;85.86;97856.55;1781591;78;21024;-67
2022/07/11 07:57:11;;;;;;;4.12;2.50;;;;;;;13.79;85.89;97853.81;1750545;80;21122;-59
2022/07/11 07:59:38;;;;;;;4.33;2.87;;;;;;;13.69;86.15;97857.05;1764445;80;21066;-64
2022/07/11 08:02:07;;;;;;;6.70;3.27;;;;;;;13.61;86.55;97859.14;1772111;79;20999;-64
2022/07/11 08:04:34;;;;;;;5.95;3.58;;;;;;;13.55;86.85;97860.41;1816928;77;21496;-66
2022/07/11 08:07:00;;;;;;;3.70;3.00;;;;;;;13.44;87.07;97856.42;1811015;77;21035;-67
2022/07/11 08:09:28;;;;;;;6.58;3.33;;;;;;;13.37;87.52;97863.36;1812791;77;21517;-66
2022/07/11 08:11:56;;;;;;;4.37;3.10;;;;;;;13.31;87.72;97856.51;1826889;77;21140;-60
2022/07/11 08:14:23;;;;;;;7.10;3.60;;;;;;;13.30;87.71;97853.59;1819017;77;21877;-63
2022/07/11 08:16:51;;;;;;;6.78;3.30;;;;;;;13.32;87.91;97850.04;1819610;77;21009;-62
2022/07/11 08:19:18;;;;;;;5.25;3.08;;;;;;;13.40;87.97;97860.82;1830598;77;21020;-65
2022/07/11 08:21:46;;;;;;;5.62;3.20;;;;;;;13.46;87.61;97859.59;1820271;77;20983;-62
2022/07/11 08:24:12;;;;;;;7.45;3.27;;;;;;;13.46;87.57;97860.94;1814035;77;21463;-62
2022/07/11 08:26:40;;;;;;;4.33;3.52;;;;;;;13.47;87.46;97865.20;1814708;77;21754;-62
2022/07/11 08:29:07;;;;;;;5.03;3.20;;;;;;;13.44;87.06;97864.50;1814714;77;21007;-63
2022/07/11 08:31:35;;;;;;;4.30;3.58;;;;;;;13.42;87.10;97868.05;1829339;77;20955;-63
2022/07/11 08:34:02;;;;;;;3.55;3.10;;;;;;;13.39;87.07;97870.02;1819594;77;22200;-66
2022/07/11 08:36:30;;;;;;;5.03;3.67;;;;;;;13.42;87.25;97865.36;1813037;77;21056;-64
2022/07/11 08:38:56;;;;;;;5.72;3.25;;;;;;;13.49;87.09;97865.70;1808627;77;21259;-63
2022/07/11 08:41:24;;;;;;;5.30;3.47;;;;;;;13.57;87.05;97868.95;1818726;77;21482;-57
2022/07/11 08:43:50;;;;;;;5.65;2.85;;;;;;;13.64;86.95;97866.61;1816304;77;20974;-64
2022/07/11 08:46:17;;;;;;;4.15;3.10;;;;;;;13.69;86.74;97865.12;1813394;77;21185;-63
2022/07/11 08:48:47;;;;;;;5.45;4.00;;;;;;;13.78;86.22;97868.39;1814473;77;21036;-62
2022/07/11 08:51:13;;;;;;;4.37;3.98;;;;;;;13.73;86.04;97874.14;1822312;77;21087;-63
2022/07/11 08:53:43;;;;;;;4.95;3.70;;;;;;;13.69;86.15;97873.19;1818332;77;20971;-64
2022/07/11 08:56:16;;;;;;;4.03;3.30;;;;;;;13.61;86.24;97872.60;1821202;77;21057;-65
2022/07/11 08:58:47;;;;;;;5.20;3.55;;;;;;;13.56;86.72;97874.66;1813212;77;21014;-60
2022/07/11 09:01:17;;;;;;;6.75;4.28;;;;;;;13.57;86.98;97877.03;1821813;77;20932;-62
2022/07/11 09:03:45;;;;;;;3.87;3.30;;;;;;;13.57;87.06;97878.38;1824005;77;21718;-63
2022/07/11 09:06:13;;;;;;;6.80;3.65;;;;;;;13.62;87.25;97874.20;1813794;77;21175;-63
2022/07/11 09:08:40;;;;;;;5.72;3.25;;;;;;;13.68;87.02;97874.28;1818120;77;21615;-64
2022/07/11 09:11:12;;;;;;;5.92;3.47;;;;;;;13.71;86.93;97877.70;1819876;77;20956;-61
2022/07/11 09:13:42;;;;;;;;;;;;;;;13.70;86.75;97873.45;1833428;77;21054;-65
2022/07/11 09:16:09;;;;;;;5.50;3.85;;;;;;;13.69;86.68;97867.81;1809884;77;21124;-64
2022/07/11 09:18:41;;;;;;;3.75;3.10;;;;;;;13.72;86.70;97870.43;1819188;77;21503;-61
2022/07/11 09:26:49;;;;;;;5.83;3.30;;;;;;;13.87;86.72;97865.16;1766321;79;21124;-63
2022/07/11 09:29:21;;;;;;;4.47;2.98;;;;;;;13.92;86.98;97866.36;1815154;77;21119;-63
2022/07/11 09:31:50;;;;;;;3.65;3.00;;;;;;;14.04;87.01;97861.13;1815514;77;20955;-62
2022/07/11 09:34:23;;;;;;;8.70;3.20;;;;;;;14.13;85.91;97875.42;1819572;77;21188;-62
2022/07/11 09:36:54;;;;;;;3.40;2.85;;;;;;;14.14;84.88;97869.70;1807080;77;21078;-61
2022/07/11 09:39:28;;;;;;;5.45;3.37;;;;;;;14.18;84.99;97869.86;1824785;77;21105;-63
2022/07/11 09:41:55;;;;;;;3.40;2.90;;;;;;;14.22;84.23;97865.44;1812669;78;21203;-62
2022/07/11 09:44:28;;;;;;;3.08;2.52;;;;;;;14.26;83.94;97862.34;1763926;80;20967;-62
2022/07/11 09:46:56;;;;;;;5.28;2.70;;;;;;;14.28;83.56;97858.23;1749093;81;21431;-66
2022/07/11 09:49:37;;;;;;;3.17;2.50;;;;;;;14.36;83.11;97859.37;1767266;80;21026;-60
2022/07/11 09:52:13;;;;;;;3.87;2.45;;;;;;;14.41;82.05;97855.17;1764399;79;21506;-62
2022/07/11 09:54:56;;;;;;;4.75;2.98;;;;;;;14.49;81.53;97853.02;1779859;78;20940;-60
2022/07/11 09:57:37;;;;;;;7.42;3.30;;;;;;;14.60;81.06;97847.52;1762357;80;21572;-61
2022/07/11 10:00:11;;;;;;;3.10;2.55;;;;;;;14.79;80.39;97849.31;1763854;80;21042;-61
2022/07/11 10:02:38;;;;;;;2.90;2.22;;;;;;;15.02;80.75;97850.72;1778381;78;21072;-61
2022/07/11 10:05:06;;;;;;;2.80;2.17;;;;;;;15.25;79.12;97850.46;1778205;79;21071;-61
2022/07/11 10:07:35;;;;;;;3.12;2.15;;;;;;;15.49;78.38;97839.92;1814027;77;21206;-60
2022/07/11 10:10:06;;;;;;;1.92;1.50;;;;;;;15.62;75.54;97841.03;1817714;77;21099;-60
2022/07/11 10:12:33;;;;;;;2.65;1.87;;;;;;;15.73;75.81;97843.58;1820101;77;20901;-62
2022/07/11 10:15:03;;;;;;;5.25;1.90;;;;;;;15.89;75.08;97839.77;1810329;77;21075;-62
2022/07/11 10:18:09;;;;;;;2.55;2.00;;;;;;;16.04;74.35;97835.12;1817630;77;21017;-61
2022/07/11 10:20:58;;;;;;;5.28;2.17;;;;;;;16.11;73.53;97831.33;1812785;77;21242;-60
2022/07/11 10:23:48;;;;;;;6.17;1.92;;;;;;;16.11;72.62;97838.09;1758637;79;21061;-63
2022/07/11 10:26:37;;;;;;;5.10;1.55;;;;;;;16.03;72.59;97841.66;1751133;80;21016;-61
2022/07/11 10:29:26;;;;;;;3.08;1.70;;;;;;;16.02;72.55;97839.27;1775852;79;21508;-61
2022/07/11 10:32:10;;;;;;;2.62;1.90;;;;;;;15.91;72.30;97834.83;1762919;79;21009;-61
2022/07/11 10:34:37;;;;;;;3.07;1.90;;;;;;;15.86;72.87;97833.66;1742453;81;21791;-60
2022/07/11 10:37:05;;;;;;;3.15;1.62;;;;;;;15.93;72.78;97831.23;1761494;80;21012;-59
2022/07/11 10:39:34;;;;;;;3.47;1.75;;;;;;;16.11;73.08;97831.91;1749082;80;21122;-61
2022/07/11 10:42:04;;;;;;;2.92;1.55;;;;;;;16.40;73.42;97821.00;1755563;80;20993;-58
2022/07/11 10:44:52;;;;;;;2.95;1.75;;;;;;;16.69;72.44;97814.73;1816711;77;21081;-58
2022/07/11 10:47:44;;;;;;;3.08;1.57;;;;;;;16.92;71.00;97818.61;1815679;77;21866;-59
2022/07/11 10:53:10;;;;;;;1.92;1.20;;;;;;;17.28;68.94;97821.38;1818431;77;21068;-59
2022/07/11 10:56:04;;;;;;;1.45;1.30;;;;;;;17.33;66.51;97818.45;1819192;77;21148;-59
2022/07/11 10:58:31;;;;;;;2.65;0.95;;;;;;;17.40;66.95;97822.75;1819339;77;21069;-58
2022/07/11 11:01:12;;;;;;;4.08;1.20;;;;;;;17.51;66.84;97824.42;1806143;77;21098;-59
2022/07/11 11:03:40;;;;;;;3.85;1.30;;;;;;;17.66;66.77;97811.01;1812528;77;21537;-59
2022/07/11 11:06:07;;;;;;;1.42;1.20;;;;;;;17.82;65.85;97811.67;1817499;77;21069;-59
2022/07/11 11:08:46;;;;;;;1.95;1.10;;;;;;;17.90;65.65;97813.48;1814781;77;20932;-59
2022/07/11 11:11:35;;;;;;;3.87;1.15;;;;;;;17.96;63.71;97814.25;1816183;77;21186;-60
2022/07/11 11:14:22;;;;;;;2.08;1.22;;;;;;;17.84;62.95;97819.69;1817004;77;21315;-61
2022/07/11 11:16:49;;;;;;;2.45;1.10;;;;;;;17.64;64.23;97813.27;1807806;77;21430;-60
2022/07/11 11:19:48;;;;;;;1.22;0.80;;;;;;;17.57;63.93;97814.41;1816582;77;20947;-60
2022/07/11 11:22:16;;;;;;;1.70;0.88;;;;;;;17.55;63.96;97822.64;1820421;77;21123;-59
2022/07/11 11:24:43;;;;;;;1.00;0.70;;;;;;;17.59;62.81;97819.50;1816971;77;21058;-59
2022/07/11 11:27:24;;;;;;;1.22;0.80;;;;;;;17.75;63.26;97817.12;1822261;77;21042;-60
2022/07/11 11:29:58;;;;;;;4.55;0.90;;;;;;;18.12;64.61;97811.61;1826225;77;20933;-59
2022/07/11 11:32:36;;;;;;;4.72;0.90;;;;;;;18.57;63.16;97804.02;1819970;77;20924;-60
2022/07/11 11:35:14;;;;;;;2.08;0.60;;;;;;;18.88;59.31;97802.73;1816841;77;20955;-59
2022/07/11 11:37:52;;;;;;;1.47;0.80;;;;;;;18.85;58.14;97812.13;1826273;77;21106;-59
2022/07/11 11:40:35;;;;;;;2.95;1.07;;;;;;;18.84;58.50;97808.61;1805254;78;21771;-59
2022/07/11 11:43:11;;;;;;;1.47;0.90;;;;;;;18.86;59.04;97808.28;1819078;77;21099;-59
2022/07/11 11:45:44;;;;;;;1.40;1.00;;;;;;;18.84;59.02;97803.19;1748407;79;21236;-59
2022/07/11 11:48:32;;;;;;;1.32;0.80;;;;;;;18.88;59.65;97799.22;1745391;80;21018;-59
2022/07/11 11:51:10;;;;;;;4.28;1.02;;;;;;;19.00;59.83;97806.73;1809415;77;21525;-59
2022/07/11 11:53:48;;;;;;;2.35;0.93;;;;;;;19.36;59.68;97800.86;1819618;77;21155;-59
2022/07/11 11:56:32;;;;;;;1.70;1.00;;;;;;;19.54;58.39;97795.27;1823683;77;21078;-58
2022/07/11 11:59:12;;;;;;;1.92;1.30;;;;;;;19.43;56.48;97795.00;1836865;77;20903;-59
2022/07/11 12:01:41;;;;;;;4.78;1.80;;;;;;;19.34;57.61;97804.44;1842317;77;20892;-59
2022/07/11 12:04:10;;;;;;;3.15;1.87;;;;;;;19.25;55.88;97803.27;1826033;77;21093;-59
2022/07/11 12:06:40;;;;;;;2.37;1.32;;;;;;;19.07;56.46;97801.48;1826392;77;21650;-59
2022/07/11 12:09:19;;;;;;;1.40;1.10;;;;;;;18.92;57.13;97794.11;1820987;77;20919;-58
2022/07/11 12:11:48;;;;;;;1.12;1.00;;;;;;;18.86;56.89;97802.30;1817972;77;21003;-59
2022/07/11 12:14:15;;;;;;;1.70;1.07;;;;;;;18.76;57.79;97796.02;1815703;79;21453;-59
2022/07/11 12:16:46;;;;;;;1.10;1.00;;;;;;;18.69;56.70;97793.12;1815142;77;20962;-59
2022/07/11 12:19:22;;;;;;;2.80;1.00;;;;;;;18.60;57.90;97795.20;1808736;78;21108;-59
2022/07/11 12:21:53;;;;;;;;;;;;;;;18.59;58.97;97803.66;1815879;79;21567;-59
2022/07/11 12:24:28;;;;;;;1.67;1.00;;;;;;;18.63;57.67;97800.50;1801687;78;20079;-59
2022/07/11 12:26:54;;;;;;;;;;;;;;;18.84;57.33;97796.41;1812336;78;21428;-59
2022/07/11 12:29:27;;;;;;;2.15;0.78;;;;;;;18.91;54.78;97792.52;1805061;79;20086;-60
2022/07/11 12:31:59;;;;;;;2.67;0.60;;;;;;;18.78;54.37;97795.09;1807381;77;21057;-59
2022/07/11 12:34:37;;;;;;;1.72;0.60;;;;;;;18.49;54.61;97798.17;1829719;77;21412;-59
2022/07/11 12:37:18;;;;;;;1.02;0.80;;;;;;;18.27;55.94;97798.70;1810494;77;20888;-59
2022/07/11 12:39:56;;;;;;;1.52;0.90;;;;;;;18.09;57.15;97792.75;1807793;78;20927;-58
2022/07/11 12:42:32;;;;;;;1.15;0.80;;;;;;;17.99;58.48;97808.72;1810327;78;21062;-60
2022/07/11 12:45:11;;;;;;;1.72;0.98;;;;;;;17.98;58.72;97811.19;1803351;78;21219;-58
2022/07/11 12:47:30;;;;;;;1.40;0.70;;;;;;;17.96;58.12;97812.11;1806471;78;20884;-58
2022/07/11 12:49:57;;;;;;;2.65;0.80;;;;;;;17.94;58.27;97816.52;1834616;77;21345;-58
2022/07/11 12:52:23;;;;;;;2.37;0.70;;;;;;;18.24;58.21;97807.51;1849121;77;21462;-59
2022/07/11 12:54:52;;;;;;;0.60;0.60;;;;;;;18.86;57.20;97802.30;1840816;77;20918;-58
2022/07/11 12:57:21;;;;;;;2.92;0.90;;;;;;;19.62;55.90;97792.91;1798767;77;21115;-59
2022/07/11 12:59:48;;;;;;;2.58;0.90;;;;;;;20.38;53.93;97783.53;1818264;78;20944;-59
2022/07/11 13:02:15;;;;;;;0.57;0.57;;;;;;;20.99;51.32;97784.07;1815807;78;20938;-59
2022/07/11 13:04:51;;;;;;;1.10;0.60;;;;;;;20.97;47.59;97784.44;1815705;78;21001;-59
2022/07/11 13:10:21;;;;;;;4.92;0.80;;;;;;;20.06;50.26;97792.16;1816591;78;21239;-60
2022/07/11 13:12:49;;;;;;;1.27;0.80;;;;;;;19.69;50.57;97794.43;1815180;78;20871;-60
2022/07/11 13:15:20;;;;;;;1.00;0.53;;;;;;;19.31;51.63;97803.23;1818307;78;21380;-61
2022/07/11 13:17:52;;;;;;;0.65;0.50;;;;;;;19.12;51.86;97798.48;1817654;78;21394;-58
2022/07/11 13:20:23;;;;;;;0.60;0.40;;;;;;;19.00;51.81;97795.88;1818351;78;20875;-59
2022/07/11 13:22:50;;;;;;;1.10;0.70;;;;;;;19.26;51.88;97791.28;1816246;78;21169;-59
2022/07/11 13:25:19;;;;;;;1.57;0.50;;;;;;;19.77;50.76;97782.59;1819630;78;20939;-59
2022/07/11 13:27:48;;;;;;;0.95;0.53;;;;;;;20.33;50.20;97779.73;1818560;78;20895;-58
2022/07/11 13:30:20;;;;;;;1.85;0.42;;;;;;;20.81;48.80;97780.25;1815763;78;21434;-59
2022/07/11 13:32:48;;;;;;;1.25;0.57;;;;;;;21.38;47.72;97784.19;1815801;78;20868;-60
2022/07/11 13:35:14;;;;;;;2.02;0.60;;;;;;;21.83;45.46;97779.79;1816781;78;21890;-59
2022/07/11 13:37:42;;;;;;;1.07;0.40;;;;;;;22.18;43.29;97774.83;1818661;78;21465;-60
2022/07/11 13:40:12;;;;;;;3.40;0.50;;;;;;;22.39;42.14;97768.27;1818957;78;20899;-59
2022/07/11 13:42:39;;;;;;;1.05;0.40;;;;;;;22.20;42.13;97772.52;1816989;78;20851;-59
2022/07/11 13:45:07;;;;;;;1.00;0.40;;;;;;;22.15;41.54;97767.38;1819322;78;20989;-60
2022/07/11 13:47:35;;;;;;;0.53;0.37;;;;;;;22.15;41.76;97764.66;1820544;78;21767;-59
2022/07/11 13:50:04;;;;;;;0.60;0.40;;;;;;;22.13;41.37;97760.95;1818624;78;20954;-59
2022/07/11 13:52:31;;;;;;;0.57;0.40;;;;;;;22.23;41.07;97760.27;1817371;78;20856;-59
2022/07/11 13:54:58;;;;;;;0.60;0.40;;;;;;;22.34;40.47;97755.75;1818409;78;20891;-59
2022/07/11 13:57:25;;;;;;;0.72;0.42;;;;;;;22.49;41.10;97766.25;1818641;78;21452;-59
2022/07/11 13:59:52;;;;;;;1.25;0.50;;;;;;;22.83;40.50;97759.61;1818640;78;21216;-59
2022/07/11 14:02:18;;;;;;;1.10;0.40;;;;;;;22.86;40.41;97756.12;1820213;78;20895;-59
2022/07/11 14:04:45;;;;;;;1.52;0.70;;;;;;;23.14;41.01;97755.59;1816014;79;20926;-60
2022/07/11 14:07:13;;;;;;;0.95;0.40;;;;;;;23.44;39.90;97766.39;1818313;78;20911;-59
2022/07/11 14:09:41;;;;;;;0.78;0.40;;;;;;;23.49;37.79;97760.57;1816166;78;21000;-59
2022/07/11 14:12:10;;;;;;;0.53;0.40;;;;;;;23.21;38.09;97756.23;1817759;78;20887;-59
2022/07/11 14:14:38;;;;;;;2.42;0.40;;;;;;;22.99;39.58;97762.08;1784483;79;21362;-60
2022/07/11 14:17:05;;;;;;;0.60;0.30;;;;;;;22.99;38.11;97764.23;1815940;79;20867;-60
2022/07/11 14:19:32;;;;;;;0.20;0.20;;;;;;;22.59;39.46;97761.47;1816713;78;20958;-59
2022/07/11 14:22:00;;;;;;;1.20;0.40;;;;;;;22.21;39.88;97768.64;1817870;78;20891;-59
2022/07/11 14:24:26;;;;;;;1.75;0.60;;;;;;;21.77;40.37;97772.49;1817034;78;21117;-60
2022/07/11 14:26:53;;;;;;;1.35;0.40;;;;;;;21.34;41.03;97779.23;1816055;78;20864;-59
2022/07/11 14:29:19;;;;;;;0.88;0.55;;;;;;;21.14;42.23;97779.12;1817495;78;20824;-59
2022/07/11 14:31:46;;;;;;;1.75;0.60;;;;;;;21.46;42.96;97775.53;1817804;78;20942;-59
2022/07/11 14:34:14;;;;;;;1.37;0.70;;;;;;;21.94;41.79;97767.11;1815971;78;21374;-59
2022/07/11 14:36:41;;;;;;;1.92;0.70;;;;;;;22.04;41.84;97763.75;1819855;78;21277;-60
2022/07/11 14:39:07;;;;;;;2.35;0.45;;;;;;;22.15;40.70;97765.45;1818944;78;21352;-59
2022/07/11 14:41:35;;;;;;;0.90;0.47;;;;;;;22.14;39.21;97776.73;1817982;78;20859;-59
2022/07/11 14:44:02;;;;;;;0.65;0.40;;;;;;;22.20;39.46;97779.34;1817038;78;21038;-59
2022/07/11 14:46:29;;;;;;;2.65;0.37;;;;;;;22.34;37.60;97771.33;1815858;79;20860;-59
2022/07/11 14:48:56;;;;;;;1.27;0.55;;;;;;;22.48;37.15;97775.58;1816116;78;21099;-60
2022/07/11 14:51:22;;;;;;;0.60;0.30;;;;;;;22.69;35.48;97767.66;1819228;78;20954;-59
2022/07/11 14:53:49;;;;;;;2.87;0.35;;;;;;;22.55;35.29;97779.75;1824428;78;20863;-59
2022/07/11 14:56:15;;;;;;;3.47;0.47;;;;;;;22.52;36.18;97770.94;1818464;78;20872;-59
2022/07/11 14:58:43;;;;;;;1.35;0.40;;;;;;;22.60;37.05;97780.78;1818401;78;20981;-60
2022/07/11 15:01:10;;;;;;;1.47;0.40;;;;;;;22.55;37.08;97773.50;1819396;78;21093;-60
2022/07/11 15:03:39;;;;;;;1.00;0.50;;;;;;;22.01;38.83;97772.09;1816758;78;20855;-59
2022/07/11 15:06:14;;;;;;;1.37;0.50;;;;;;;21.41;40.13;97784.03;1817415;78;20863;-60
2022/07/11 15:14:12;;;;;;;0.55;0.50;;;;;;;20.10;44.32;97800.59;1817098;78;21109;-60
2022/07/11 15:16:39;;;;;;;0.72;0.40;;;;;;;19.75;45.36;97805.26;1819993;78;20926;-60
2022/07/11 15:19:06;;;;;;;2.02;0.60;;;;;;;19.49;46.61;97805.04;1817148;78;20942;-59
2022/07/11 15:21:33;;;;;;;1.77;0.60;;;;;;;19.26;47.50;97812.20;1815725;79;20962;-60
2022/07/11 15:24:01;;;;;;;0.80;0.70;;;;;;;19.03;48.85;97824.25;1817885;78;21379;-59
2022/07/11 15:26:27;;;;;;;1.35;0.82;;;;;;;18.87;49.29;97828.28;1819984;78;21414;-60
2022/07/11 15:28:54;;;;;;;1.32;0.80;;;;;;;18.84;50.02;97827.61;1818849;78;20915;-59
2022/07/11 15:31:21;;;;;;;2.15;0.80;;;;;;;18.93;51.03;97824.75;1818350;78;20982;-59
2022/07/11 15:33:49;;;;;;;2.67;0.70;;;;;;;19.21;51.30;97827.40;1819709;78;20919;-59
2022/07/11 15:36:17;;;;;;;2.00;0.78;;;;;;;19.62;51.38;97832.30;1819656;78;20851;-59
2022/07/11 15:38:47;;;;;;;1.20;0.60;;;;;;;19.85;50.55;97833.25;1819204;78;21867;-59
2022/07/11 15:41:14;;;;;;;3.08;0.88;;;;;;;19.80;50.87;97826.73;1819843;78;20946;-59
2022/07/11 15:43:41;;;;;;;2.00;1.10;;;;;;;19.65;51.19;97835.69;1818956;78;20911;-59
2022/07/11 15:46:08;;;;;;;2.20;0.90;;;;;;;19.45;51.89;97834.05;1816128;78;20840;-59
2022/07/11 15:48:34;;;;;;;3.05;0.90;;;;;;;19.21;52.20;97828.75;1817515;78;21033;-60
2022/07/11 15:51:01;;;;;;;3.60;1.00;;;;;;;18.88;53.18;97842.08;1820022;78;21211;-59
2022/07/11 15:53:28;;;;;;;3.00;0.98;;;;;;;18.59;53.82;97837.01;1818785;78;20899;-59
2022/07/11 15:55:54;;;;;;;7.12;1.37;;;;;;;18.33;54.24;97846.91;1815706;79;20860;-59
2022/07/11 15:58:21;;;;;;;4.10;0.70;;;;;;;18.06;54.73;97848.22;1817206;78;20911;-60
2022/07/11 16:00:50;;;;;;;1.40;0.60;;;;;;;17.78;54.92;97839.23;1820249;78;20910;-60
2022/07/11 16:03:17;;;;;;;3.05;0.70;;;;;;;17.58;55.66;97830.09;1819570;78;21113;-59
2022/07/11 16:05:43;;;;;;;3.02;0.70;;;;;;;17.44;55.00;97843.95;1818510;78;20907;-59
2022/07/11 16:08:11;;;;;;;0.72;0.60;;;;;;;17.36;54.46;97842.13;1817202;78;21398;-59
2022/07/11 16:10:38;;;;;;;1.77;0.55;;;;;;;17.28;54.86;97844.95;1818380;78;20875;-60
2022/07/11 16:13:05;;;;;;;2.45;0.60;;;;;;;17.11;54.82;97843.23;1816886;78;20958;-59
2022/07/11 16:15:31;;;;;;;4.08;0.62;;;;;;;16.91;55.91;97842.16;1815807;78;21379;-60
2022/07/11 16:17:59;;;;;;;0.82;0.57;;;;;;;16.72;57.28;97850.58;1816566;78;20855;-59
2022/07/11 16:20:25;;;;;;;0.50;0.40;;;;;;;16.44;58.48;97863.26;1817481;78;21500;-60
2022/07/11 16:22:53;;;;;;;2.50;0.70;;;;;;;16.20;60.10;97846.91;1817040;78;20895;-59
2022/07/11 16:25:19;;;;;;;3.47;0.80;;;;;;;16.01;61.09;97850.66;1791670;78;21378;-59
2022/07/11 16:27:46;;;;;;;1.95;0.90;;;;;;;15.98;61.93;97858.05;1792883;78;21106;-59
2022/07/11 16:30:13;;;;;;;1.98;0.75;;;;;;;15.99;62.42;97859.62;1821629;78;20899;-59
2022/07/11 16:32:40;;;;;;;1.02;0.70;;;;;;;15.96;63.33;97865.70;1816354;78;21367;-59
2022/07/11 16:35:07;;;;;;;3.62;0.98;;;;;;;15.94;63.54;97866.59;1817601;78;21372;-59
2022/07/11 16:37:34;;;;;;;2.47;1.00;;;;;;;15.95;64.33;97871.41;1817869;78;20970;-59
2022/07/11 16:45:30;;;;;;;1.87;0.80;;;;;;;15.91;64.71;97856.44;1819534;78;20940;-58
2022/07/11 16:47:57;;;;;;;2.58;0.70;;;;;;;15.94;64.79;97861.19;1817681;78;20903;-58
2022/07/11 16:50:23;;;;;;;1.57;0.70;;;;;;;15.95;64.54;97862.75;1816805;78;20923;-58
2022/07/11 16:52:52;;;;;;;0.95;0.70;;;;;;;15.94;64.47;97857.14;1818811;78;21114;-58
2022/07/11 16:55:19;;;;;;;2.17;1.10;;;;;;;15.97;64.64;97867.27;1819229;78;21698;-58
2022/07/11 16:57:45;;;;;;;1.67;0.70;;;;;;;16.01;64.54;97859.31;1818530;78;20863;-58
2022/07/11 17:00:13;;;;;;;5.58;0.80;;;;;;;15.99;64.86;97855.56;1818785;78;20930;-59
2022/07/11 17:02:41;;;;;;;1.32;0.70;;;;;;;15.97;64.84;97853.76;1819547;78;21279;-58
2022/07/11 17:05:08;;;;;;;1.60;0.80;;;;;;;15.92;64.93;97853.95;1816675;78;21929;-58
2022/07/11 17:07:35;;;;;;;1.72;0.90;;;;;;;15.87;65.32;97854.16;1817803;78;20911;-60
2022/07/11 17:10:02;;;;;;;1.95;0.75;;;;;;;15.84;65.61;97847.27;1817641;78;20954;-61
2022/07/11 17:12:29;;;;;;;1.30;0.82;;;;;;;15.76;65.85;97850.23;1817222;78;20891;-59
2022/07/11 17:14:55;;;;;;;3.50;0.80;;;;;;;15.71;66.47;97852.57;1816845;78;20912;-60
2022/07/11 17:17:22;;;;;;;2.85;0.80;;;;;;;15.66;66.68;97850.05;1817352;78;21129;-59
2022/07/11 17:19:49;;;;;;;2.70;0.80;;;;;;;15.65;67.19;97853.09;1815613;79;20907;-60
2022/07/11 17:22:15;;;;;;;3.40;0.93;;;;;;;15.61;67.11;97845.42;1815825;79;20938;-59
2022/07/11 17:24:42;;;;;;;0.93;0.80;;;;;;;15.55;67.33;97838.61;1816566;78;20954;-59
2022/07/11 17:27:08;;;;;;;3.75;0.93;;;;;;;15.49;67.64;97837.22;1815688;79;20824;-60
2022/07/11 17:29:35;;;;;;;2.98;0.93;;;;;;;15.44;67.84;97843.59;1818346;78;21286;-59
2022/07/11 17:32:02;;;;;;;2.05;0.72;;;;;;;15.41;68.19;97842.05;1815612;78;20894;-60
2022/07/11 17:34:29;;;;;;;1.57;0.80;;;;;;;15.36;68.56;97845.73;1816712;78;20998;-60
2022/07/11 17:36:55;;;;;;;2.30;0.90;;;;;;;15.30;68.71;97853.78;1816349;79;20949;-59